Time;durP1;ratioP1;P1;durP2;ratioP2;P2;SDS_P1;SDS_P2;PMS_P1;PMS_P2;Temp;Humidity;BMP_temperature;BMP_pressure;BME280_temperature;BME280_humidity;BME280_pressure;Samples;Min_cycle;Max_cycle;Signal;HPM_P1;HPM_P2
2023/06/27 00:01:31;;;;;;;0.30;0.30;;;;;;;16.87;59.61;98744.94;5012787;28;20060;-82
2023/06/27 00:04:00;;;;;;;0.30;0.30;;;;;;;16.80;60.01;98735.50;5033347;28;20483;-82
2023/06/27 00:06:27;;;;;;;0.30;0.30;;;;;;;16.83;60.23;98743.88;5033719;28;20088;-82
2023/06/27 00:08:54;;;;;;;0.30;0.30;;;;;;;16.80;60.35;98743.66;5015902;28;20059;-82
2023/06/27 00:11:21;;;;;;;0.30;0.30;;;;;;;16.82;60.48;98738.75;5033115;28;20132;-82
2023/06/27 00:13:53;;;;;;;0.30;0.30;;;;;;;16.77;60.49;98745.03;5033897;28;20045;-82
2023/06/27 00:16:20;;;;;;;0.30;0.30;;;;;;;16.74;60.66;98737.44;5033519;28;20582;-82
2023/06/27 00:18:48;;;;;;;0.30;0.30;;;;;;;16.74;60.67;98742.09;5015517;28;20057;-82
2023/06/27 00:21:16;;;;;;;0.30;0.30;;;;;;;16.69;60.63;98737.50;5015677;28;20428;-82
2023/06/27 00:23:43;;;;;;;0.25;0.25;;;;;;;16.62;60.78;98734.31;5032918;28;20049;-83
2023/06/27 00:26:13;;;;;;;0.30;0.30;;;;;;;16.62;60.79;98734.31;5032507;28;20046;-82
2023/06/27 00:28:40;;;;;;;0.30;0.30;;;;;;;16.57;60.90;98742.53;5057836;28;20059;-82
2023/06/27 00:31:10;;;;;;;0.30;0.30;;;;;;;16.47;61.07;98722.50;5072350;28;20087;-83
2023/06/27 00:33:38;;;;;;;0.30;0.30;;;;;;;16.50;61.04;98725.72;5072674;28;20078;-82
2023/06/27 00:36:06;;;;;;;0.30;0.30;;;;;;;16.56;61.05;98732.72;5054545;28;20094;-82
2023/06/27 00:38:34;;;;;;;0.30;0.30;;;;;;;16.52;61.06;98727.06;5054529;28;20048;-82
2023/06/27 00:41:01;;;;;;;0.30;0.30;;;;;;;16.52;60.91;98734.44;5072438;28;20048;-82
2023/06/27 00:43:28;;;;;;;0.30;0.30;;;;;;;16.51;60.82;98722.75;5072549;28;20143;-82
2023/06/27 00:45:56;;;;;;;0.30;0.30;;;;;;;16.47;60.76;98727.94;5037921;28;20055;-83
2023/06/27 00:48:23;;;;;;;0.30;0.30;;;;;;;16.46;60.72;98720.06;5037939;28;20055;-82
2023/06/27 00:50:55;;;;;;;0.30;0.30;;;;;;;16.50;60.58;98729.25;5054964;28;20051;-82
2023/06/27 00:53:22;;;;;;;0.30;0.30;;;;;;;16.47;60.36;98725.22;5038232;28;20457;-82
2023/06/27 00:55:52;;;;;;;0.30;0.30;;;;;;;16.50;60.36;98725.72;5032203;28;20081;-82
2023/06/27 00:58:24;;;;;;;0.30;0.30;;;;;;;16.48;60.63;98717.84;4999258;28;20099;-84
2023/06/27 01:00:51;;;;;;;0.30;0.30;;;;;;;16.41;60.65;98715.50;5014576;28;20053;-84
2023/06/27 01:03:21;;;;;;;0.30;0.30;;;;;;;16.36;60.80;98720.19;5032212;28;20045;-84
2023/06/27 01:05:49;;;;;;;0.30;0.30;;;;;;;16.41;60.84;98729.09;4997704;28;20053;-84
2023/06/27 01:08:30;;;;;;;0.30;0.30;;;;;;;16.38;60.97;98724.25;5031588;28;20061;-84
2023/06/27 01:11:12;;;;;;;0.30;0.30;;;;;;;16.38;61.10;98728.84;5014264;28;20064;-84
2023/06/27 01:13:49;;;;;;;0.30;0.30;;;;;;;16.38;61.04;98729.69;5014435;28;20084;-84
2023/06/27 01:16:21;;;;;;;0.30;0.30;;;;;;;16.38;60.98;98723.41;5025801;28;20136;-84
2023/06/27 01:18:49;;;;;;;0.30;0.30;;;;;;;16.36;60.94;98722.91;5051787;28;20128;-84
2023/06/27 01:21:17;;;;;;;0.30;0.30;;;;;;;16.39;61.02;98711.44;5017455;28;20415;-84
2023/06/27 01:23:58;;;;;;;0.30;0.30;;;;;;;16.37;61.03;98721.78;5036592;28;20144;-83
2023/06/27 01:26:27;;;;;;;0.30;0.30;;;;;;;16.35;61.19;98722.06;5071594;28;20574;-84
2023/06/27 01:28:56;;;;;;;0.30;0.30;;;;;;;16.30;61.28;98719.41;5036987;28;20152;-84
2023/06/27 01:31:55;;;;;;;0.30;0.30;;;;;;;16.29;61.46;98727.88;5036720;28;20122;-84
2023/06/27 01:34:35;;;;;;;0.30;0.30;;;;;;;16.11;61.53;98703.00;5036635;28;20059;-84
2023/06/27 01:37:17;;;;;;;0.20;0.20;;;;;;;16.30;61.19;98727.56;5071404;28;20048;-84
2023/06/27 01:39:47;;;;;;;0.30;0.30;;;;;;;16.23;61.27;98713.53;5037150;28;20515;-83
2023/06/27 01:42:18;;;;;;;0.30;0.30;;;;;;;16.31;61.23;98723.78;5053500;28;20598;-84
2023/06/27 01:44:46;;;;;;;0.30;0.30;;;;;;;16.25;61.31;98714.00;5071213;28;20050;-84
2023/06/27 01:47:23;;;;;;;0.30;0.30;;;;;;;16.33;61.19;98720.75;5069985;28;20717;-84
2023/06/27 01:49:50;;;;;;;0.30;0.30;;;;;;;16.35;61.29;98713.91;5071120;28;20053;-84
2023/06/27 01:52:19;;;;;;;0.30;0.30;;;;;;;16.36;61.20;98710.09;5049347;28;20098;-84
2023/06/27 01:54:46;;;;;;;0.30;0.30;;;;;;;16.39;61.19;98716.88;5050954;28;20470;-83
2023/06/27 01:57:13;;;;;;;0.30;0.30;;;;;;;16.42;61.06;98719.81;5032821;28;20468;-83
2023/06/27 01:59:40;;;;;;;0.30;0.30;;;;;;;16.45;61.05;98723.88;5033338;28;20053;-83
2023/06/27 02:02:07;;;;;;;0.30;0.30;;;;;;;16.45;61.21;98724.69;5050718;28;20140;-83
2023/06/27 02:04:35;;;;;;;0.30;0.30;;;;;;;16.46;60.94;98720.06;5050779;28;20139;-84
2023/06/27 02:07:02;;;;;;;0.30;0.30;;;;;;;16.49;60.99;98721.41;5033092;28;20045;-84
2023/06/27 02:09:29;;;;;;;0.30;0.30;;;;;;;16.46;61.02;98718.16;5051415;28;20070;-84
2023/06/27 02:11:58;;;;;;;0.30;0.30;;;;;;;16.52;60.96;98723.53;5063293;28;20464;-84
2023/06/27 02:14:26;;;;;;;0.30;0.30;;;;;;;16.49;60.85;98711.31;5038891;28;20500;-84
2023/06/27 02:16:55;;;;;;;0.30;0.30;;;;;;;16.57;60.82;98709.84;5034717;28;20056;-84
2023/06/27 02:19:24;;;;;;;0.28;0.28;;;;;;;16.59;60.82;98707.66;5051552;28;20143;-84
2023/06/27 02:21:54;;;;;;;0.30;0.30;;;;;;;16.62;60.82;98707.06;5069430;28;20147;-84
2023/06/27 02:24:24;;;;;;;0.30;0.30;;;;;;;16.67;60.70;98720.63;5069501;28;20083;-83
2023/06/27 02:26:52;;;;;;;0.30;0.30;;;;;;;16.56;60.60;98709.06;5070865;28;20048;-83
2023/06/27 02:29:19;;;;;;;0.30;0.30;;;;;;;16.68;60.61;98720.34;5050883;28;20097;-84
2023/06/27 02:31:46;;;;;;;0.30;0.30;;;;;;;16.72;60.69;98727.94;5047992;28;20458;-83
2023/06/27 02:34:14;;;;;;;0.25;0.25;;;;;;;16.73;60.52;98719.44;5048683;28;20052;-84
2023/06/27 02:36:45;;;;;;;0.30;0.30;;;;;;;16.79;60.49;98721.06;5030885;28;20052;-83
2023/06/27 02:39:12;;;;;;;0.30;0.30;;;;;;;16.85;60.26;98716.34;5031221;28;20072;-83
2023/06/27 02:41:39;;;;;;;0.30;0.30;;;;;;;16.87;60.18;98723.13;5036932;28;20107;-83
2023/06/27 02:44:06;;;;;;;0.30;0.30;;;;;;;16.84;60.21;98723.72;5040486;28;20107;-83
2023/06/27 02:46:33;;;;;;;0.30;0.30;;;;;;;16.89;60.22;98720.13;5041179;28;20135;-83
2023/06/27 02:49:06;;;;;;;0.30;0.30;;;;;;;16.87;60.12;98723.13;5039785;28;20046;-83
2023/06/27 02:51:34;;;;;;;0.30;0.30;;;;;;;16.89;60.38;98712.75;5020677;28;20061;-82
2023/06/27 02:54:01;;;;;;;0.30;0.30;;;;;;;16.91;60.38;98717.88;5031085;28;20052;-84
2023/06/27 02:56:32;;;;;;;0.30;0.30;;;;;;;16.94;60.26;98719.22;5032449;28;20051;-84
2023/06/27 02:59:00;;;;;;;0.30;0.30;;;;;;;16.95;60.17;98718.13;5032073;28;20419;-84
2023/06/27 03:01:28;;;;;;;0.30;0.30;;;;;;;16.92;60.28;98705.09;5032048;28;20057;-83
2023/06/27 03:03:55;;;;;;;0.30;0.30;;;;;;;16.96;60.19;98715.09;5049777;28;20051;-84
2023/06/27 03:06:42;;;;;;;0.30;0.30;;;;;;;16.97;60.08;98705.81;5050234;28;20079;-85
2023/06/27 03:09:09;;;;;;;0.30;0.30;;;;;;;17.00;59.97;98715.34;5049299;28;20152;-83
2023/06/27 03:11:37;;;;;;;0.20;0.20;;;;;;;17.02;59.89;98711.22;5032138;28;20114;-85
2023/06/27 03:14:04;;;;;;;0.30;0.30;;;;;;;17.04;60.01;98708.16;5031669;28;20049;-85
2023/06/27 03:16:31;;;;;;;0.30;0.30;;;;;;;17.08;60.06;98711.94;5055319;28;20048;-89
2023/06/27 03:19:00;;;;;;;0.30;0.30;;;;;;;17.07;60.15;98700.22;5036947;28;20055;-84
2023/06/27 03:21:30;;;;;;;0.30;0.30;;;;;;;17.15;59.88;98709.66;5052282;28;20048;-83
2023/06/27 03:23:57;;;;;;;0.30;0.30;;;;;;;17.30;59.68;98709.44;5050329;28;20045;-84
2023/06/27 03:26:28;;;;;;;0.30;0.30;;;;;;;17.44;59.44;98701.31;5032319;28;20053;-84
2023/06/27 03:28:57;;;;;;;0.30;0.30;;;;;;;17.54;59.00;98701.13;5017183;28;20550;-84
2023/06/27 03:31:25;;;;;;;0.30;0.30;;;;;;;17.61;58.94;98695.31;5015002;28;20103;-83
2023/06/27 03:33:56;;;;;;;0.30;0.30;;;;;;;17.63;58.54;98698.56;5039157;28;20049;-83
2023/06/27 03:36:25;;;;;;;0.30;0.30;;;;;;;17.58;58.38;98682.28;5023067;28;20041;-83
2023/06/27 03:38:52;;;;;;;0.30;0.30;;;;;;;17.66;58.43;98700.69;5024999;28;20068;-83
2023/06/27 03:41:19;;;;;;;0.30;0.30;;;;;;;17.69;58.54;98707.47;5019501;28;20410;-84
2023/06/27 03:43:46;;;;;;;0.30;0.30;;;;;;;17.69;58.25;98705.53;5007448;28;20143;-83
2023/06/27 03:46:14;;;;;;;0.30;0.30;;;;;;;17.70;58.42;98698.19;5026189;28;20919;-83
2023/06/27 03:48:44;;;;;;;0.30;0.30;;;;;;;17.74;58.41;98697.25;5041418;28;20053;-83
2023/06/27 03:51:11;;;;;;;0.30;0.30;;;;;;;17.65;58.57;98681.91;5033387;28;20099;-85
2023/06/27 03:53:38;;;;;;;0.30;0.30;;;;;;;17.81;58.46;98694.19;5048148;28;20144;-85
2023/06/27 03:56:07;;;;;;;0.30;0.30;;;;;;;17.83;58.01;98691.97;5035559;28;20586;-85
2023/06/27 03:58:35;;;;;;;0.30;0.30;;;;;;;18.05;57.51;98698.69;5035614;28;20079;-85
2023/06/27 04:01:03;;;;;;;0.30;0.30;;;;;;;18.18;57.54;98690.50;5054106;28;20045;-84
2023/06/27 04:03:29;;;;;;;0.30;0.30;;;;;;;18.36;57.21;98704.41;5057709;28;20418;-85
2023/06/27 04:05:57;;;;;;;0.30;0.30;;;;;;;18.39;56.89;98699.13;5050849;28;20049;-83
2023/06/27 04:08:27;;;;;;;0.30;0.30;;;;;;;18.69;56.29;98696.09;5053060;28;20144;-83
2023/06/27 04:10:56;;;;;;;0.30;0.30;;;;;;;19.04;55.35;98697.25;5018549;28;20507;-84
2023/06/27 04:13:25;;;;;;;0.30;0.30;;;;;;;19.20;54.94;98700.47;5055085;28;20048;-86
2023/06/27 04:15:52;;;;;;;0.30;0.30;;;;;;;19.31;54.24;98701.81;5055403;28;20056;-84
2023/06/27 04:18:29;;;;;;;0.30;0.30;;;;;;;19.22;54.00;98692.75;5037887;28;20049;-83
2023/06/27 04:20:58;;;;;;;0.30;0.30;;;;;;;19.24;53.26;98702.28;5061307;28;20052;-86
2023/06/27 04:23:26;;;;;;;0.30;0.30;;;;;;;19.20;53.40;98692.25;5040570;28;20045;-84
2023/06/27 04:26:04;;;;;;;0.30;0.30;;;;;;;19.27;52.84;98696.19;5035390;28;20056;-83
2023/06/27 04:28:31;;;;;;;0.30;0.30;;;;;;;19.38;52.35;98695.94;4999067;28;20065;-84
2023/06/27 04:31:00;;;;;;;0.30;0.30;;;;;;;19.52;52.37;98693.13;5043606;28;20064;-83
2023/06/27 04:33:27;;;;;;;0.30;0.30;;;;;;;19.45;51.75;98683.44;5039494;28;20094;-83
2023/06/27 04:36:00;;;;;;;0.30;0.30;;;;;;;19.54;51.64;98693.63;5052473;28;20507;-85
2023/06/27 04:38:37;;;;;;;0.30;0.30;;;;;;;19.59;51.27;98698.97;5052602;28;20064;-82
2023/06/27 04:41:08;;;;;;;0.30;0.30;;;;;;;19.63;51.48;98702.72;5048131;23;20069;-85
2023/06/27 04:43:36;;;;;;;0.30;0.30;;;;;;;19.76;51.59;98701.06;5020732;28;20049;-85
2023/06/27 04:46:03;;;;;;;0.30;0.30;;;;;;;19.95;50.88;98700.84;5024226;28;20641;-84
2023/06/27 04:48:33;;;;;;;0.30;0.30;;;;;;;20.23;50.09;98696.81;5020594;28;20139;-84
2023/06/27 04:51:00;;;;;;;0.30;0.30;;;;;;;20.41;49.63;98688.63;5032115;28;20411;-84
2023/06/27 04:53:30;;;;;;;0.30;0.30;;;;;;;20.60;48.62;98691.16;5026481;28;20045;-83
2023/06/27 04:55:57;;;;;;;0.30;0.30;;;;;;;20.73;48.81;98698.44;5030223;28;20049;-85
2023/06/27 04:58:24;;;;;;;0.30;0.30;;;;;;;20.63;49.10;98696.00;5031428;28;20056;-84
2023/06/27 05:00:54;;;;;;;0.30;0.30;;;;;;;20.63;49.09;98694.06;5028734;28;20049;-84
2023/06/27 05:03:29;;;;;;;0.30;0.30;;;;;;;20.49;49.20;98682.41;5030881;28;20136;-84
2023/06/27 05:05:56;;;;;;;0.30;0.30;;;;;;;20.54;49.25;98704.19;5030704;28;20076;-84
2023/06/27 05:08:23;;;;;;;0.30;0.30;;;;;;;20.51;49.16;98705.63;5024199;28;20054;-85
2023/06/27 05:10:50;;;;;;;0.30;0.30;;;;;;;20.38;49.42;98695.56;5011319;28;20042;-84
2023/06/27 05:13:17;;;;;;;0.30;0.30;;;;;;;20.46;49.33;98703.03;5012028;28;20065;-87
2023/06/27 05:15:44;;;;;;;0.30;0.30;;;;;;;20.38;48.86;98700.25;5012361;28;20539;-84
2023/06/27 05:18:15;;;;;;;0.30;0.30;;;;;;;20.47;49.08;98704.63;5011023;28;20046;-84
2023/06/27 05:20:54;;;;;;;0.30;0.30;;;;;;;20.45;48.94;98695.91;5031670;28;20045;-83
2023/06/27 05:23:21;;;;;;;0.30;0.30;;;;;;;20.66;49.14;98707.16;5031405;28;20049;-85
2023/06/27 05:25:49;;;;;;;0.30;0.30;;;;;;;20.68;48.80;98710.38;5033226;28;20046;-84
2023/06/27 05:28:17;;;;;;;0.30;0.30;;;;;;;20.70;48.83;98701.84;5033639;28;20082;-85
2023/06/27 05:30:47;;;;;;;0.30;0.30;;;;;;;20.82;48.90;98713.00;5033539;28;20049;-84
2023/06/27 05:33:14;;;;;;;0.20;0.20;;;;;;;20.66;48.78;98693.47;5033499;28;20041;-85
2023/06/27 05:35:41;;;;;;;0.30;0.30;;;;;;;20.78;48.20;98698.31;5017642;28;20069;-83
2023/06/27 05:38:09;;;;;;;0.30;0.30;;;;;;;20.77;47.30;98705.72;5014650;28;20107;-85
2023/06/27 05:40:36;;;;;;;0.30;0.30;;;;;;;20.71;47.95;98701.53;5031582;28;20053;-85
2023/06/27 05:43:03;;;;;;;0.20;0.20;;;;;;;20.92;47.80;98714.63;5031426;28;20084;-83
2023/06/27 05:45:30;;;;;;;0.20;0.20;;;;;;;21.03;47.26;98694.00;5030499;28;20107;-84
2023/06/27 05:48:06;;;;;;;0.20;0.20;;;;;;;21.20;47.26;98702.25;5031595;28;20045;-85
2023/06/27 05:50:33;;;;;;;0.20;0.20;;;;;;;21.28;46.55;98708.06;5030379;28;20058;-85
2023/06/27 05:53:00;;;;;;;0.30;0.30;;;;;;;21.17;46.44;98677.41;5021636;28;20088;-85
2023/06/27 05:55:28;;;;;;;0.30;0.30;;;;;;;21.59;45.96;98694.97;5011872;28;20140;-84
2023/06/27 05:58:01;;;;;;;0.25;0.25;;;;;;;21.55;45.12;98671.28;5039093;28;20384;-85
2023/06/27 06:00:28;;;;;;;0.30;0.30;;;;;;;21.66;45.65;98682.72;5050337;28;20076;-83
2023/06/27 06:02:55;;;;;;;0.30;0.30;;;;;;;21.85;44.54;98685.88;5032843;28;20041;-84
2023/06/27 06:05:28;;;;;;;0.30;0.30;;;;;;;21.95;44.19;98669.09;5049773;28;20452;-86
2023/06/27 06:07:57;;;;;;;0.30;0.30;;;;;;;22.05;43.78;98681.63;5041497;28;20053;-84
2023/06/27 06:10:24;;;;;;;0.20;0.20;;;;;;;22.10;43.47;98683.41;5023013;28;20448;-84
2023/06/27 06:12:51;;;;;;;0.20;0.20;;;;;;;21.89;43.68;98662.13;5011313;28;20108;-85
2023/06/27 06:15:19;;;;;;;0.20;0.20;;;;;;;21.74;43.56;98654.41;5010965;28;20500;-84
2023/06/27 06:17:46;;;;;;;0.25;0.25;;;;;;;21.75;44.05;98691.72;5010774;28;20416;-85
2023/06/27 06:20:13;;;;;;;0.22;0.22;;;;;;;21.75;44.19;98686.22;5011058;28;20074;-85
2023/06/27 06:22:40;;;;;;;0.30;0.30;;;;;;;21.80;44.16;98686.06;5011256;28;20064;-83
2023/06/27 06:25:08;;;;;;;0.20;0.20;;;;;;;21.97;43.63;98677.78;5011005;28;20097;-86
2023/06/27 06:27:40;;;;;;;0.30;0.30;;;;;;;22.29;43.15;98694.84;5010886;28;20077;-84
2023/06/27 06:30:23;;;;;;;0.20;0.20;;;;;;;22.44;43.07;98680.53;5010810;28;20061;-85
2023/06/27 06:32:50;;;;;;;0.20;0.20;;;;;;;22.67;42.81;98692.06;5010938;28;20050;-84
2023/06/27 06:35:23;;;;;;;0.20;0.20;;;;;;;22.81;42.30;98691.81;5010952;28;20050;-85
2023/06/27 06:37:50;;;;;;;0.30;0.30;;;;;;;22.81;42.45;98686.31;5010160;28;20045;-85
2023/06/27 06:40:17;;;;;;;0.20;0.20;;;;;;;22.64;42.24;98676.25;5010555;28;20057;-84
2023/06/27 06:42:57;;;;;;;0.20;0.20;;;;;;;22.60;42.41;98693.72;5009324;28;20054;-85
2023/06/27 06:45:24;;;;;;;0.20;0.20;;;;;;;22.50;42.53;98700.41;5016694;28;20092;-83
2023/06/27 06:47:52;;;;;;;0.20;0.20;;;;;;;22.35;42.36;98678.97;5016981;28;20068;-86
2023/06/27 06:50:19;;;;;;;0.30;0.30;;;;;;;22.50;41.53;98683.91;5022165;28;20057;-85
2023/06/27 06:52:46;;;;;;;0.30;0.30;;;;;;;22.44;41.56;98672.31;5026008;28;20049;-85
2023/06/27 06:55:19;;;;;;;0.20;0.20;;;;;;;22.42;41.49;98682.81;5029832;28;20055;-85
2023/06/27 06:57:47;;;;;;;0.30;0.30;;;;;;;22.35;41.85;98688.00;5030107;28;20059;-86
2023/06/27 07:00:15;;;;;;;0.20;0.20;;;;;;;22.35;41.76;98689.97;5028605;28;20049;-85
2023/06/27 07:02:42;;;;;;;0.20;0.20;;;;;;;22.26;41.96;98682.56;5030169;28;20069;-85
2023/06/27 07:05:12;;;;;;;0.20;0.20;;;;;;;22.33;42.01;98684.78;5029970;28;20092;-86
2023/06/27 07:07:39;;;;;;;0.20;0.20;;;;;;;22.35;42.37;98687.22;5027096;28;20144;-85
2023/06/27 07:10:08;;;;;;;0.20;0.20;;;;;;;22.07;43.00;98666.44;5022416;28;20049;-83
2023/06/27 07:12:35;;;;;;;0.20;0.20;;;;;;;22.39;42.32;98690.94;5027083;28;20088;-85
2023/06/27 07:15:02;;;;;;;0.30;0.30;;;;;;;22.48;42.19;98678.75;5027430;28;20144;-80
2023/06/27 07:17:35;;;;;;;0.20;0.20;;;;;;;22.60;41.69;98682.72;5031013;28;20064;-83
2023/06/27 07:20:04;;;;;;;0.25;0.25;;;;;;;22.76;41.35;98678.25;5016201;28;20045;-83
2023/06/27 07:22:39;;;;;;;0.20;0.20;;;;;;;22.95;40.51;98677.81;5034049;28;20074;-84
2023/06/27 07:25:07;;;;;;;0.30;0.30;;;;;;;23.05;40.09;98679.41;5032614;28;20138;-83
2023/06/27 07:27:41;;;;;;;0.30;0.30;;;;;;;23.07;39.99;98664.16;5032694;28;20042;-83
2023/06/27 07:30:09;;;;;;;0.30;0.30;;;;;;;23.14;39.65;98675.44;5032468;28;20165;-82
2023/06/27 07:32:39;;;;;;;0.30;0.30;;;;;;;23.12;39.85;98679.69;5034174;28;20104;-82
2023/06/27 07:35:10;;;;;;;0.30;0.30;;;;;;;23.25;39.31;98678.59;5033242;28;20050;-83
2023/06/27 07:37:38;;;;;;;0.30;0.30;;;;;;;23.33;38.81;98677.72;5033810;28;20115;-83
2023/06/27 07:40:07;;;;;;;0.30;0.30;;;;;;;23.39;38.61;98678.31;5015135;28;20073;-82
2023/06/27 07:42:37;;;;;;;0.30;0.30;;;;;;;23.50;38.42;98676.75;5033717;28;20119;-84
2023/06/27 07:45:07;;;;;;;0.30;0.30;;;;;;;23.81;37.49;98675.53;5033242;28;20073;-85
2023/06/27 07:47:34;;;;;;;0.30;0.30;;;;;;;24.17;37.23;98677.53;5033421;28;20049;-81
2023/06/27 07:50:08;;;;;;;0.30;0.30;;;;;;;24.39;35.98;98667.22;5032009;28;20152;-84
2023/06/27 07:52:35;;;;;;;0.30;0.30;;;;;;;24.32;35.38;98662.28;5031847;28;20045;-84
2023/06/27 07:55:09;;;;;;;0.30;0.30;;;;;;;24.39;35.55;98672.75;5032935;28;20049;-84
2023/06/27 07:57:36;;;;;;;0.30;0.30;;;;;;;24.21;34.92;98664.69;5030385;28;20080;-83
2023/06/27 08:00:04;;;;;;;0.30;0.30;;;;;;;24.02;34.82;98667.16;5025684;28;20100;-86
2023/06/27 08:02:38;;;;;;;0.20;0.20;;;;;;;23.94;35.27;98654.31;5025438;28;20096;-85
2023/06/27 08:05:06;;;;;;;0.20;0.20;;;;;;;23.73;35.49;98654.38;5026379;28;20144;-84
2023/06/27 08:07:39;;;;;;;0.30;0.30;;;;;;;23.67;35.27;98655.69;5027417;28;20049;-86
2023/06/27 08:10:14;;;;;;;0.20;0.20;;;;;;;23.62;34.51;98667.72;5029826;28;20060;-84
2023/06/27 08:12:41;;;;;;;0.28;0.28;;;;;;;23.46;33.70;98651.03;5032929;28;20049;-85
2023/06/27 08:15:09;;;;;;;0.20;0.20;;;;;;;23.56;33.67;98669.09;5036345;28;20048;-85
2023/06/27 08:17:36;;;;;;;0.20;0.20;;;;;;;23.52;32.95;98646.94;5001122;28;20484;-86
2023/06/27 08:20:05;;;;;;;0.30;0.30;;;;;;;23.64;32.91;98659.13;5031712;28;20114;-85
2023/06/27 08:22:35;;;;;;;0.30;0.30;;;;;;;23.85;32.70;98648.91;5031130;28;20042;-83
2023/06/27 08:25:06;;;;;;;0.30;0.30;;;;;;;24.15;32.57;98652.25;5033814;28;20459;-84
2023/06/27 08:27:38;;;;;;;0.40;0.40;;;;;;;24.51;31.78;98625.88;5033721;28;20042;-85
2023/06/27 08:30:07;;;;;;;0.30;0.30;;;;;;;25.09;30.58;98644.94;5033026;28;20053;-84
2023/06/27 08:32:37;;;;;;;0.30;0.30;;;;;;;25.19;30.14;98638.16;5032890;28;20056;-85
2023/06/27 08:35:06;;;;;;;0.30;0.30;;;;;;;25.38;30.29;98648.56;5032459;28;20049;-84
2023/06/27 08:37:33;;;;;;;0.30;0.30;;;;;;;25.35;30.14;98630.75;5033788;28;20041;-86
2023/06/27 08:40:09;;;;;;;0.30;0.30;;;;;;;25.73;29.76;98638.50;5031040;28;20415;-84
2023/06/27 08:42:42;;;;;;;0.20;0.20;;;;;;;25.61;29.80;98648.81;5031677;28;20057;-84
2023/06/27 08:45:15;;;;;;;0.28;0.28;;;;;;;25.28;29.96;98644.34;5032286;28;20104;-85
2023/06/27 08:47:47;;;;;;;0.20;0.20;;;;;;;25.00;30.62;98634.06;5032683;28;20603;-85
2023/06/27 08:50:28;;;;;;;0.20;0.20;;;;;;;24.64;30.71;98619.19;5034462;28;20064;-85
2023/06/27 08:52:57;;;;;;;0.20;0.20;;;;;;;24.56;31.08;98633.94;5032606;28;20148;-85
2023/06/27 08:55:44;;;;;;;0.20;0.20;;;;;;;24.62;30.96;98620.69;4985724;28;20154;-85
2023/06/27 08:58:15;;;;;;;0.30;0.30;;;;;;;24.96;30.61;98632.34;5031484;28;20053;-85
2023/06/27 09:00:52;;;;;;;0.30;0.30;;;;;;;25.02;30.65;98623.47;5031170;28;20140;-86
2023/06/27 09:03:29;;;;;;;0.20;0.20;;;;;;;24.80;30.78;98619.28;5002105;28;20045;-85
2023/06/27 09:05:57;;;;;;;0.20;0.20;;;;;;;24.68;31.48;98621.25;5014800;28;20116;-85
2023/06/27 09:08:24;;;;;;;0.20;0.20;;;;;;;24.57;31.25;98626.44;4983293;28;20050;-86
2023/06/27 09:10:57;;;;;;;0.20;0.20;;;;;;;24.43;31.09;98612.97;5011012;28;20058;-85
2023/06/27 09:13:33;;;;;;;0.30;0.30;;;;;;;24.51;31.80;98601.06;5012302;28;20053;-83
2023/06/27 09:16:01;;;;;;;0.20;0.20;;;;;;;24.60;31.19;98617.47;5028453;28;20563;-86
2023/06/27 09:18:35;;;;;;;0.20;0.20;;;;;;;24.62;31.42;98618.72;5027289;28;20062;-85
2023/06/27 09:21:03;;;;;;;0.20;0.20;;;;;;;24.59;31.72;98610.34;5012629;28;20056;-85
2023/06/27 09:23:30;;;;;;;0.20;0.20;;;;;;;24.55;31.92;98607.47;5012533;28;20136;-85
2023/06/27 09:26:13;;;;;;;0.30;0.30;;;;;;;24.80;30.94;98615.72;5011859;28;20049;-85
2023/06/27 09:28:47;;;;;;;0.40;0.40;;;;;;;25.30;29.69;98609.72;5012459;28;20085;-86
2023/06/27 09:31:17;;;;;;;0.30;0.30;;;;;;;25.90;28.79;98607.00;5010685;28;20512;-85
2023/06/27 09:33:47;;;;;;;0.30;0.30;;;;;;;26.20;28.47;98620.34;4994050;28;20112;-86
2023/06/27 09:36:34;;;;;;;0.20;0.20;;;;;;;25.92;28.82;98612.94;5021227;28;20936;-86
2023/06/27 09:39:09;;;;;;;0.20;0.20;;;;;;;25.41;29.55;98623.81;5010076;28;20578;-85
2023/06/27 09:41:44;;;;;;;0.20;0.20;;;;;;;25.34;29.05;98622.81;4646102;28;10000205;-84
2023/06/27 09:44:18;;;;;;;0.20;0.20;;;;;;;25.16;29.58;98597.44;5026874;28;20147;-86
2023/06/27 09:46:55;;;;;;;0.20;0.20;;;;;;;25.25;29.69;98609.97;5028074;28;20046;-85
2023/06/27 09:49:34;;;;;;;0.20;0.20;;;;;;;25.33;29.86;98605.44;5010876;28;20060;-85
2023/06/27 09:52:04;;;;;;;0.20;0.20;;;;;;;25.36;29.98;98621.31;5024935;28;20055;-85
2023/06/27 09:54:42;;;;;;;0.20;0.20;;;;;;;25.32;29.67;98620.41;5008526;28;20100;-85
2023/06/27 09:57:16;;;;;;;0.20;0.20;;;;;;;24.93;30.42;98625.56;5018392;28;20702;-84
2023/06/27 09:59:49;;;;;;;0.20;0.20;;;;;;;24.54;30.66;98616.91;5026141;28;20191;-86
2023/06/27 10:02:16;;;;;;;0.20;0.20;;;;;;;24.33;31.39;98621.69;5033022;28;20077;-86
2023/06/27 10:04:44;;;;;;;0.20;0.20;;;;;;;24.17;31.63;98621.59;5000089;28;20079;-83
2023/06/27 10:07:14;;;;;;;0.20;0.20;;;;;;;24.02;31.98;98623.06;5035191;28;20077;-85
2023/06/27 10:09:42;;;;;;;0.20;0.20;;;;;;;23.79;32.21;98615.22;5023480;28;20054;-82
2023/06/27 10:12:14;;;;;;;0.20;0.20;;;;;;;23.84;32.61;98618.91;5026244;28;20045;-85
2023/06/27 10:14:56;;;;;;;0.20;0.20;;;;;;;23.73;32.60;98602.84;5006447;28;20049;-85
2023/06/27 10:17:34;;;;;;;0.20;0.20;;;;;;;23.85;32.45;98604.81;5001144;28;20049;-87
2023/06/27 10:20:06;;;;;;;0.20;0.20;;;;;;;23.90;32.64;98607.34;5008494;28;20045;-88
2023/06/27 10:22:35;;;;;;;0.20;0.20;;;;;;;23.93;32.59;98595.63;5026139;28;20555;-84
2023/06/27 10:25:05;;;;;;;0.20;0.20;;;;;;;23.86;32.35;98600.09;5018541;28;20061;-84
2023/06/27 10:27:42;;;;;;;0.20;0.20;;;;;;;23.79;32.77;98612.47;5016056;28;20463;-82
2023/06/27 10:30:20;;;;;;;0.20;0.20;;;;;;;23.75;32.97;98608.81;5018674;28;20053;-84
2023/06/27 10:32:48;;;;;;;0.20;0.20;;;;;;;23.65;32.88;98606.47;5016296;28;20517;-84
2023/06/27 10:35:34;;;;;;;0.20;0.20;;;;;;;23.69;33.21;98592.81;5015765;28;20115;-86
2023/06/27 10:38:15;;;;;;;0.20;0.20;;;;;;;23.77;32.97;98589.97;5013728;28;20513;-84
2023/06/27 10:40:58;;;;;;;0.28;0.28;;;;;;;24.04;32.87;98595.19;5017760;28;20066;-84
2023/06/27 10:43:49;;;;;;;0.25;0.25;;;;;;;24.20;32.81;98598.84;5024748;28;20072;-85
2023/06/27 10:46:26;;;;;;;0.20;0.20;;;;;;;24.30;32.08;98597.59;5025315;28;20052;-83
2023/06/27 10:48:59;;;;;;;0.20;0.20;;;;;;;24.21;31.85;98587.50;5024040;28;20064;-85
2023/06/27 10:51:43;;;;;;;0.20;0.20;;;;;;;24.52;31.87;98605.41;5018373;28;20057;-83
2023/06/27 10:54:17;;;;;;;0.30;0.30;;;;;;;24.70;31.74;98594.91;5008589;28;20046;-82
2023/06/27 10:56:55;;;;;;;0.30;0.30;;;;;;;25.03;31.29;98603.00;5018184;28;20046;-83
2023/06/27 10:59:23;;;;;;;0.30;0.30;;;;;;;25.34;30.58;98596.00;5010445;28;20046;-83
2023/06/27 11:01:52;;;;;;;0.30;0.30;;;;;;;25.86;30.58;98589.50;5024415;28;20080;-82
2023/06/27 11:04:29;;;;;;;0.30;0.30;;;;;;;26.52;29.40;98587.13;5030827;28;20046;-84
2023/06/27 11:07:01;;;;;;;0.40;0.40;;;;;;;26.91;28.74;98589.97;5014087;28;20053;-84
2023/06/27 11:09:37;;;;;;;0.50;0.50;;;;;;;27.75;27.46;98589.25;5016928;28;20049;-84
2023/06/27 11:12:14;;;;;;;0.45;0.45;;;;;;;28.81;26.64;98584.97;5019599;28;20312;-83
2023/06/27 11:14:44;;;;;;;0.20;0.20;;;;;;;28.61;26.51;98570.41;4997504;28;20598;-83
2023/06/27 11:17:12;;;;;;;0.20;0.20;;;;;;;28.19;26.88;98569.41;5014878;28;20046;-84
2023/06/27 11:19:45;;;;;;;0.20;0.20;;;;;;;27.34;27.85;98569.50;5017269;28;20047;-84
2023/06/27 11:22:28;;;;;;;0.10;0.10;;;;;;;26.83;28.74;98580.69;5022987;28;20135;-82
2023/06/27 11:25:19;;;;;;;0.20;0.20;;;;;;;26.08;29.33;98574.25;5015611;28;20455;-84
2023/06/27 11:27:57;;;;;;;0.20;0.20;;;;;;;25.54;29.89;98565.75;5017749;28;20421;-84
2023/06/27 11:30:28;;;;;;;0.20;0.20;;;;;;;25.33;30.56;98574.25;5015512;28;20092;-87
2023/06/27 11:33:05;;;;;;;0.20;0.20;;;;;;;25.27;30.54;98577.28;4998817;28;20050;-85
2023/06/27 11:35:34;;;;;;;0.20;0.20;;;;;;;24.95;30.90;98581.84;5022010;28;20042;-85
2023/06/27 11:38:05;;;;;;;0.20;0.20;;;;;;;24.92;30.83;98566.00;5025975;28;20631;-86
2023/06/27 11:40:33;;;;;;;0.20;0.20;;;;;;;24.97;30.71;98571.28;5028677;28;20108;-86
2023/06/27 11:43:06;;;;;;;0.20;0.20;;;;;;;24.78;30.70;98571.09;5032831;28;20072;-84
2023/06/27 11:45:36;;;;;;;0.20;0.20;;;;;;;24.51;32.68;98567.97;5032728;28;20050;-85
2023/06/27 11:48:03;;;;;;;0.20;0.20;;;;;;;24.46;36.92;98586.69;5015065;28;20591;-86
2023/06/27 11:50:30;;;;;;;0.20;0.20;;;;;;;24.00;39.34;98590.38;5028904;28;20060;-85